Time;durP1;ratioP1;P1;durP2;ratioP2;P2;SDS_P1;SDS_P2;PMS_P1;PMS_P2;Temp;Humidity;BMP_temperature;BMP_pressure;BME280_temperature;BME280_humidity;BME280_pressure;Samples;Min_cycle;Max_cycle;Signal;HPM_P1;HPM_P2
2024/01/10 00:02:06;;;;;;;10.80;5.57;;;-4.90;99.90;;;;;;7355925;32;20129;-55
2024/01/10 00:06:08;;;;;;;9.60;4.68;;;-5.00;99.90;;;;;;7360619;32;20123;-58
2024/01/10 00:10:10;;;;;;;12.30;4.95;;;-5.00;99.90;;;;;;7354890;32;20413;-56
2024/01/10 00:14:12;;;;;;;13.40;4.40;;;-4.90;99.90;;;;;;7356479;32;20551;-55
2024/01/10 00:18:13;;;;;;;11.25;4.90;;;-4.90;99.90;;;;;;7354173;32;20183;-56
2024/01/10 00:22:15;;;;;;;9.20;4.68;;;-5.00;99.90;;;;;;7362626;32;20266;-56
2024/01/10 00:26:17;;;;;;;10.00;4.45;;;-4.90;99.90;;;;;;7365640;32;20599;-54
2024/01/10 00:30:19;;;;;;;9.02;4.45;;;-4.90;99.90;;;;;;7355860;32;20122;-55
2024/01/10 00:34:20;;;;;;;8.52;4.07;;;-4.90;99.90;;;;;;7354915;32;20149;-57
2024/01/10 00:38:22;;;;;;;11.32;5.22;;;-4.90;99.90;;;;;;7361850;32;20112;-55
2024/01/10 00:42:24;;;;;;;12.55;4.65;;;-4.90;99.90;;;;;;7364789;32;20240;-57
2024/01/10 00:46:26;;;;;;;9.85;4.57;;;-4.90;99.90;;;;;;7352224;32;20109;-56
2024/01/10 00:50:27;;;;;;;8.77;4.28;;;-4.90;99.90;;;;;;7357187;32;20338;-55
2024/01/10 00:54:29;;;;;;;10.38;4.80;;;-4.90;99.90;;;;;;7361851;32;20273;-56
2024/01/10 00:58:31;;;;;;;9.63;4.55;;;-4.90;99.90;;;;;;7362163;32;20099;-56
2024/01/10 01:02:33;;;;;;;12.82;5.12;;;-4.80;99.90;;;;;;7355925;32;20265;-55
2024/01/10 01:06:34;;;;;;;10.63;5.05;;;-4.90;99.90;;;;;;7361312;32;20150;-56
2024/01/10 01:10:36;;;;;;;10.98;4.53;;;-4.90;99.90;;;;;;7366232;32;20147;-55
2024/01/10 01:14:39;;;;;;;12.70;4.70;;;-4.80;99.90;;;;;;7371090;32;20238;-56
2024/01/10 01:18:45;;;;;;;11.18;4.53;;;-4.80;99.90;;;;;;7368347;32;20191;-56
2024/01/10 01:22:46;;;;;;;10.30;5.32;;;-4.80;99.90;;;;;;7362771;32;20810;-55
2024/01/10 01:26:48;;;;;;;12.65;4.65;;;-4.80;99.90;;;;;;7364874;32;20409;-55
2024/01/10 01:30:50;;;;;;;11.65;4.80;;;-4.70;99.90;;;;;;7367031;32;20107;-55
2024/01/10 01:34:52;;;;;;;13.27;4.80;;;-4.70;99.90;;;;;;7365337;32;20111;-54
2024/01/10 01:38:53;;;;;;;12.88;5.20;;;-4.80;99.90;;;;;;7372076;32;20321;-58
2024/01/10 01:42:55;;;;;;;7.65;3.72;;;-4.70;99.90;;;;;;7366171;32;20194;-56
2024/01/10 01:46:58;;;;;;;13.52;4.55;;;-4.80;99.90;;;;;;7364820;32;20155;-56
2024/01/10 01:51:04;;;;;;;11.50;4.75;;;-4.70;99.90;;;;;;7365903;32;20189;-55
2024/01/10 01:55:08;;;;;;;10.40;4.18;;;-4.80;99.90;;;;;;7369423;32;20468;-55
2024/01/10 01:59:10;;;;;;;10.18;5.00;;;-4.80;99.90;;;;;;7368529;32;20655;-55
2024/01/10 02:03:12;;;;;;;11.20;5.10;;;-4.90;99.90;;;;;;7359312;32;20121;-55
2024/01/10 02:07:13;;;;;;;10.80;4.65;;;-4.80;99.90;;;;;;7358708;32;20122;-55
2024/01/10 02:11:15;;;;;;;9.38;3.70;;;-4.80;99.90;;;;;;7372390;32;20106;-56
2024/01/10 02:15:17;;;;;;;9.63;4.43;;;-4.70;99.90;;;;;;7366228;32;20138;-56
2024/01/10 02:19:23;;;;;;;10.25;4.68;;;-4.80;99.90;;;;;;7367546;32;20126;-56
2024/01/10 02:23:25;;;;;;;8.30;4.00;;;-4.80;99.90;;;;;;7363361;32;20150;-55
2024/01/10 02:27:27;;;;;;;9.65;4.30;;;-4.80;99.90;;;;;;7365194;32;20905;-55
2024/01/10 02:31:29;;;;;;;9.00;4.03;;;-4.80;99.90;;;;;;7366524;32;20099;-55
2024/01/10 02:35:32;;;;;;;12.63;5.05;;;-4.90;99.90;;;;;;7366701;32;20558;-55
2024/01/10 02:39:34;;;;;;;10.15;4.22;;;-4.80;99.90;;;;;;7363660;32;20226;-56
2024/01/10 02:43:36;;;;;;;10.93;5.05;;;-4.80;99.90;;;;;;7366988;32;20569;-55
2024/01/10 02:47:38;;;;;;;10.73;4.85;;;-4.90;99.90;;;;;;7366761;32;20099;-56
2024/01/10 02:51:40;;;;;;;7.03;3.80;;;-4.90;99.90;;;;;;7362407;32;20213;-55
2024/01/10 02:55:43;;;;;;;10.65;5.03;;;-5.00;99.90;;;;;;7358475;32;20249;-55
2024/01/10 02:59:45;;;;;;;8.45;4.12;;;-5.00;99.90;;;;;;7356580;32;20220;-57
2024/01/10 03:03:47;;;;;;;10.88;4.28;;;-5.00;99.90;;;;;;7358102;32;20121;-56
2024/01/10 03:07:49;;;;;;;11.38;4.57;;;-5.00;99.90;;;;;;7359316;32;20114;-56
2024/01/10 03:11:50;;;;;;;9.55;4.28;;;-5.10;99.90;;;;;;7359598;32;20317;-56
2024/01/10 03:15:52;;;;;;;9.88;4.53;;;-5.10;99.90;;;;;;7364485;32;20138;-55
2024/01/10 03:19:54;;;;;;;11.18;4.80;;;-5.10;99.90;;;;;;7356193;32;20807;-56
2024/01/10 03:23:57;;;;;;;8.70;4.68;;;-5.10;99.90;;;;;;7359051;32;20111;-56
2024/01/10 03:27:58;;;;;;;10.05;4.55;;;-5.20;99.90;;;;;;7368108;32;20202;-56
2024/01/10 03:32:00;;;;;;;11.68;4.68;;;-5.20;99.90;;;;;;7357405;32;20685;-56
2024/01/10 03:36:02;;;;;;;8.70;4.47;;;-5.20;99.90;;;;;;7364377;32;20197;-56
2024/01/10 03:40:04;;;;;;;9.40;4.30;;;-5.20;99.90;;;;;;7363080;32;20601;-55
2024/01/10 03:44:06;;;;;;;10.38;4.72;;;-5.30;99.90;;;;;;7356481;32;20218;-56
2024/01/10 03:48:08;;;;;;;9.35;3.83;;;-5.30;99.90;;;;;;7356411;32;20194;-56
2024/01/10 03:52:10;;;;;;;11.15;4.85;;;-5.30;99.90;;;;;;7360988;32;20794;-55
2024/01/10 03:56:12;;;;;;;9.93;4.82;;;-5.30;99.90;;;;;;7360621;32;20107;-55
2024/01/10 04:00:14;;;;;;;12.40;5.47;;;-5.30;99.90;;;;;;7359049;32;20832;-56
2024/01/10 04:04:16;;;;;;;13.38;4.82;;;-5.40;99.90;;;;;;7360068;32;20277;-56
2024/01/10 04:08:17;;;;;;;9.95;4.32;;;-5.40;99.90;;;;;;7369753;32;20122;-57
2024/01/10 04:12:19;;;;;;;11.50;4.82;;;-5.40;99.90;;;;;;7366629;32;20158;-56
2024/01/10 04:16:21;;;;;;;13.52;4.47;;;-5.50;99.90;;;;;;7364255;32;20150;-55
2024/01/10 04:20:23;;;;;;;10.80;4.22;;;-5.50;99.90;;;;;;7360426;32;20102;-55
2024/01/10 04:24:25;;;;;;;12.37;4.85;;;-5.50;99.90;;;;;;7359302;32;20182;-56
2024/01/10 04:28:26;;;;;;;11.57;4.70;;;-5.50;99.90;;;;;;7363567;32;20190;-56
2024/01/10 04:32:28;;;;;;;10.05;4.75;;;-5.50;99.90;;;;;;7354915;32;20131;-57
2024/01/10 04:36:31;;;;;;;10.00;4.80;;;-5.40;99.90;;;;;;7356413;32;20190;-56
2024/01/10 04:40:32;;;;;;;14.15;5.18;;;-5.50;99.90;;;;;;7354755;32;20156;-56
2024/01/10 04:44:34;;;;;;;11.93;5.07;;;-5.50;99.90;;;;;;7366318;32;20110;-57
2024/01/10 04:48:37;;;;;;;13.27;5.32;;;-5.50;99.90;;;;;;7366643;32;20195;-56
2024/01/10 04:52:38;;;;;;;11.50;5.37;;;-5.50;99.90;;;;;;7354499;32;20103;-57
2024/01/10 04:56:40;;;;;;;14.07;4.93;;;-5.50;99.90;;;;;;7364598;32;20202;-55
2024/01/10 05:00:42;;;;;;;10.82;5.05;;;-5.60;99.90;;;;;;7363303;32;20269;-55
2024/01/10 05:04:44;;;;;;;9.52;5.28;;;-5.50;99.90;;;;;;7369244;32;20186;-57
2024/01/10 05:08:46;;;;;;;10.82;5.30;;;-5.60;99.90;;;;;;7363089;32;20161;-54
2024/01/10 05:12:48;;;;;;;12.32;5.12;;;-5.50;99.90;;;;;;7359713;32;21906;-55
2024/01/10 05:16:49;;;;;;;11.60;5.70;;;-5.60;99.90;;;;;;7355732;32;20247;-54
2024/01/10 05:20:51;;;;;;;14.25;5.65;;;-5.60;99.90;;;;;;7360827;32;20242;-55
2024/01/10 05:24:53;;;;;;;9.85;5.25;;;-5.50;99.90;;;;;;7357977;32;20206;-56
2024/01/10 05:28:54;;;;;;;15.48;5.43;;;-5.60;99.90;;;;;;7366215;32;20251;-55
2024/01/10 05:32:56;;;;;;;13.30;5.62;;;-5.50;99.90;;;;;;7358331;32;20302;-55
2024/01/10 05:36:58;;;;;;;10.93;4.60;;;-5.50;99.90;;;;;;7354581;32;20171;-56
2024/01/10 05:41:01;;;;;;;12.70;5.78;;;-5.60;99.90;;;;;;7363986;32;20595;-56
2024/01/10 05:45:04;;;;;;;12.90;5.28;;;-5.50;99.90;;;;;;7359045;32;20163;-57
2024/01/10 05:49:06;;;;;;;10.35;5.32;;;-5.60;99.90;;;;;;7367043;32;20131;-55
2024/01/10 05:53:10;;;;;;;13.55;5.45;;;-5.60;99.90;;;;;;7361836;32;20720;-55
2024/01/10 05:57:12;;;;;;;10.98;5.35;;;-5.50;99.90;;;;;;7362677;32;20209;-56
2024/01/10 06:01:13;;;;;;;16.67;5.97;;;-5.60;99.90;;;;;;7370900;32;20121;-56
2024/01/10 06:05:15;;;;;;;14.82;6.10;;;-5.60;99.90;;;;;;7365779;32;20167;-56
2024/01/10 06:09:21;;;;;;;10.50;5.87;;;-5.60;99.90;;;;;;7367444;32;20210;-56
2024/01/10 06:13:23;;;;;;;11.57;5.45;;;-5.60;99.90;;;;;;7370146;32;20193;-56
2024/01/10 06:17:25;;;;;;;13.52;5.78;;;-5.60;99.90;;;;;;7364192;32;20114;-55
2024/01/10 06:21:27;;;;;;;15.10;5.85;;;-5.70;99.90;;;;;;7363939;32;20491;-56
2024/01/10 06:25:28;;;;;;;10.95;5.87;;;-5.50;99.90;;;;;;7357961;32;20490;-55
2024/01/10 06:29:30;;;;;;;12.25;6.15;;;-5.60;99.90;;;;;;7364157;32;20333;-56
2024/01/10 06:33:32;;;;;;;17.90;6.10;;;-5.60;99.90;;;;;;7350683;32;20147;-56
2024/01/10 06:37:34;;;;;;;12.27;5.25;;;-5.50;99.90;;;;;;7361296;32;20220;-55
2024/01/10 06:41:38;;;;;;;18.05;6.70;;;-5.60;99.90;;;;;;7361900;32;20513;-56
2024/01/10 06:45:42;;;;;;;11.80;5.57;;;-5.60;99.90;;;;;;7350740;32;20107;-55
2024/01/10 06:49:43;;;;;;;20.55;8.57;;;-5.60;99.90;;;;;;7357893;32;20171;-57
2024/01/10 06:53:45;;;;;;;16.00;7.37;;;-5.60;99.90;;;;;;7354127;32;20106;-56
2024/01/10 06:57:48;;;;;;;13.68;6.53;;;-5.60;99.90;;;;;;7359589;32;20107;-55
2024/01/10 07:01:57;;;;;;;13.43;6.55;;;-5.70;99.90;;;;;;7357858;32;20126;-55
2024/01/10 07:05:59;;;;;;;13.93;6.62;;;-5.70;99.90;;;;;;7363801;32;20923;-55
2024/01/10 07:10:04;;;;;;;12.00;6.62;;;-5.70;99.90;;;;;;7367404;32;20466;-55
2024/01/10 07:14:06;;;;;;;12.73;5.87;;;-5.70;99.90;;;;;;7362759;32;20131;-55
2024/01/10 07:18:08;;;;;;;17.12;7.00;;;-5.70;99.90;;;;;;7355202;32;20547;-57
2024/01/10 07:22:10;;;;;;;18.17;6.97;;;-5.70;99.90;;;;;;7359691;32;20236;-54
2024/01/10 07:26:16;;;;;;;17.12;7.15;;;-5.70;99.90;;;;;;7355860;32;20162;-56
2024/01/10 07:30:18;;;;;;;17.62;7.00;;;-5.70;99.90;;;;;;7348760;32;20678;-55
2024/01/10 07:34:21;;;;;;;13.62;6.40;;;-5.60;99.90;;;;;;7353410;32;20134;-56
2024/01/10 07:38:23;;;;;;;16.83;7.40;;;-5.60;99.90;;;;;;7357364;32;20091;-56
2024/01/10 07:42:25;;;;;;;21.23;7.70;;;-5.60;99.90;;;;;;7355666;32;20180;-58
2024/01/10 07:46:29;;;;;;;16.58;7.03;;;-5.60;99.90;;;;;;7357195;32;20135;-57
2024/01/10 07:50:31;;;;;;;14.45;6.85;;;-5.60;99.90;;;;;;7360566;32;20212;-57
2024/01/10 07:54:33;;;;;;;18.70;6.90;;;-5.60;99.90;;;;;;7362771;32;20790;-56
2024/01/10 07:58:34;;;;;;;18.65;7.45;;;-5.50;99.90;;;;;;7357769;32;20164;-57
2024/01/10 08:02:37;;;;;;;14.73;7.22;;;-5.50;99.90;;;;;;7357904;32;20174;-57
2024/01/10 08:06:39;;;;;;;23.52;7.35;;;-5.40;99.90;;;;;;7356143;32;20133;-56
2024/01/10 08:10:41;;;;;;;15.32;6.85;;;-5.50;99.90;;;;;;7360152;32;20190;-56
2024/01/10 08:14:45;;;;;;;15.30;7.03;;;-5.60;99.90;;;;;;7363023;32;20195;-56
2024/01/10 08:18:48;;;;;;;16.80;7.03;;;-5.50;99.90;;;;;;7354162;32;20140;-57
2024/01/10 08:22:50;;;;;;;17.70;7.20;;;-5.50;99.90;;;;;;7358364;32;20135;-56
2024/01/10 08:26:52;;;;;;;18.48;7.10;;;-5.50;99.90;;;;;;7356224;32;20577;-57
2024/01/10 08:30:54;;;;;;;17.60;7.78;;;-5.50;99.90;;;;;;7356195;32;20202;-56
2024/01/10 08:35:08;;;;;;;18.00;7.68;;;-5.50;99.90;;;;;;7358225;32;20422;-57
2024/01/10 08:39:11;;;;;;;15.23;6.95;;;-5.50;99.90;;;;;;7359322;32;20103;-56
2024/01/10 08:43:13;;;;;;;17.90;7.68;;;-5.40;99.90;;;;;;7357939;32;20205;-57
2024/01/10 08:47:14;;;;;;;17.10;8.00;;;-5.40;99.90;;;;;;7358564;32;20170;-58
2024/01/10 08:51:16;;;;;;;21.15;7.60;;;-5.30;99.90;;;;;;7355352;32;20174;-58
2024/01/10 08:55:18;;;;;;;19.42;8.23;;;-5.30;99.90;;;;;;7362286;32;20148;-57
2024/01/10 08:59:20;;;;;;;18.37;7.25;;;-5.30;99.90;;;;;;7362292;32;20120;-57
2024/01/10 09:03:22;;;;;;;17.58;8.25;;;-5.30;99.90;;;;;;7357455;32;20186;-57
2024/01/10 09:07:23;;;;;;;21.10;8.90;;;-5.20;99.90;;;;;;7358426;32;20632;-57
2024/01/10 09:11:25;;;;;;;16.83;8.90;;;-5.10;99.90;;;;;;7364035;32;20146;-57
2024/01/10 09:15:27;;;;;;;19.05;8.40;;;-5.00;99.90;;;;;;7359469;32;20230;-57
2024/01/10 09:19:30;;;;;;;17.00;7.95;;;-5.00;99.90;;;;;;7366148;32;20107;-57
2024/01/10 09:23:32;;;;;;;21.77;8.32;;;-4.90;99.90;;;;;;7361608;32;20194;-57
2024/01/10 09:27:35;;;;;;;19.37;8.43;;;-4.80;99.90;;;;;;7362813;32;20253;-57
2024/01/10 09:31:36;;;;;;;19.65;7.82;;;-4.60;99.90;;;;;;7363753;32;20252;-57
2024/01/10 09:35:38;;;;;;;14.23;7.78;;;-4.40;99.90;;;;;;7368812;32;20585;-57
2024/01/10 09:39:40;;;;;;;17.55;7.35;;;-4.20;99.90;;;;;;7357585;32;20135;-57
2024/01/10 09:43:42;;;;;;;17.83;8.15;;;-4.20;99.90;;;;;;7359570;32;20384;-57
2024/01/10 09:47:48;;;;;;;19.65;8.40;;;-4.10;99.90;;;;;;7365484;32;20111;-58
2024/01/10 09:51:50;;;;;;;15.88;7.53;;;-4.00;99.90;;;;;;7359578;32;20301;-56
2024/01/10 09:55:56;;;;;;;17.87;8.30;;;-3.90;99.90;;;;;;7358342;32;20680;-57
2024/01/10 09:59:58;;;;;;;21.00;8.23;;;-3.80;99.90;;;;;;7358152;32;20343;-56
2024/01/10 10:04:02;;;;;;;16.60;8.13;;;-3.70;99.90;;;;;;7362278;32;20656;-57
2024/01/10 10:08:07;;;;;;;18.45;7.87;;;-3.60;99.90;;;;;;7362614;32;20226;-58
2024/01/10 10:12:09;;;;;;;17.52;8.50;;;-3.50;99.90;;;;;;7354641;32;20100;-57
2024/01/10 10:16:12;;;;;;;19.90;8.55;;;-3.30;99.90;;;;;;7360145;32;20442;-56
2024/01/10 10:20:25;;;;;;;19.73;9.40;;;-3.40;99.90;;;;;;7363816;32;20139;-57
2024/01/10 10:24:27;;;;;;;19.20;9.10;;;-3.30;99.90;;;;;;7360376;32;20739;-58
2024/01/10 10:28:31;;;;;;;19.30;8.40;;;-3.20;99.90;;;;;;7358177;32;20205;-57
2024/01/10 10:32:37;;;;;;;17.85;8.70;;;-3.10;99.90;;;;;;7363117;32;20252;-58
2024/01/10 10:36:38;;;;;;;18.98;9.23;;;-2.90;99.90;;;;;;7359125;32;20155;-56
2024/01/10 10:40:40;;;;;;;16.87;8.27;;;-2.80;99.90;;;;;;7361154;32;20203;-59
2024/01/10 10:44:44;;;;;;;18.92;8.68;;;-2.70;99.90;;;;;;7358544;32;20233;-56
2024/01/10 10:48:47;;;;;;;16.58;8.40;;;-2.70;99.90;;;;;;7361773;32;20293;-57
2024/01/10 10:52:51;;;;;;;16.85;8.52;;;-2.50;99.90;;;;;;7360493;32;20444;-57
2024/01/10 10:56:55;;;;;;;16.80;9.15;;;-2.30;99.90;;;;;;7356594;32;20205;-57
2024/01/10 11:00:57;;;;;;;18.98;9.55;;;-2.20;99.90;;;;;;7357961;32;20175;-58
2024/01/10 11:05:00;;;;;;;28.05;10.07;;;-2.20;99.90;;;;;;7356603;32;20139;-57
2024/01/10 11:09:07;;;;;;;18.17;9.32;;;-2.20;99.90;;;;;;7359180;32;20713;-58
2024/01/10 11:13:27;;;;;;;19.17;8.97;;;-2.00;99.90;;;;;;7363638;32;20571;-58
2024/01/10 11:17:41;;;;;;;19.17;9.43;;;-1.70;99.90;;;;;;7360955;32;20146;-58
2024/01/10 11:21:49;;;;;;;23.65;8.70;;;-1.60;99.90;;;;;;7360571;32;20600;-58
2024/01/10 11:25:51;;;;;;;19.23;8.32;;;-1.50;99.90;;;;;;7364905;32;20487;-57
2024/01/10 11:29:54;;;;;;;18.23;9.20;;;-1.50;99.90;;;;;;7363343;32;20302;-59
2024/01/10 11:33:58;;;;;;;25.42;9.98;;;-1.40;99.90;;;;;;7351126;32;20262;-57
2024/01/10 11:38:00;;;;;;;21.08;9.52;;;-1.20;99.90;;;;;;7360689;32;20186;-57
2024/01/10 11:42:02;;;;;;;24.25;9.18;;;-1.00;99.90;;;;;;7360862;32;20269;-57
2024/01/10 11:46:06;;;;;;;17.20;8.57;;;-1.00;99.90;;;;;;7365101;32;20245;-58
2024/01/10 11:50:09;;;;;;;21.23;9.57;;;-1.10;99.90;;;;;;7366646;32;20501;-58
2024/01/10 11:54:11;;;;;;;16.55;8.30;;;-1.10;99.90;;;;;;7361651;32;20103;-58
2024/01/10 11:58:13;;;;;;;18.45;8.85;;;-0.90;99.90;;;;;;7369150;32;20194;-59
2024/01/10 12:02:15;;;;;;;17.23;8.40;;;-0.70;99.90;;;;;;7359297;32;20129;-56
2024/01/10 12:06:19;;;;;;;19.60;8.38;;;-0.50;99.90;;;;;;7357438;32;20168;-57
2024/01/10 12:10:21;;;;;;;18.55;8.77;;;-0.40;99.90;;;;;;7360764;32;20192;-57
2024/01/10 12:14:24;;;;;;;15.48;8.70;;;-0.30;99.90;;;;;;7354545;32;20286;-57
2024/01/10 12:18:25;;;;;;;21.50;9.05;;;-0.30;99.90;;;;;;7355262;32;20156;-57
2024/01/10 12:22:27;;;;;;;17.62;7.82;;;-0.30;99.90;;;;;;7365353;32;20358;-56
2024/01/10 12:26:29;;;;;;;15.60;8.05;;;-0.30;99.90;;;;;;7362276;32;20103;-58
2024/01/10 12:30:31;;;;;;;17.77;8.50;;;-0.40;99.90;;;;;;7357646;32;20252;-57
2024/01/10 12:34:33;;;;;;;22.13;9.93;;;-0.30;99.90;;;;;;7365533;32;20151;-58
2024/01/10 12:38:36;;;;;;;20.95;9.50;;;-0.30;99.90;;;;;;7362225;32;20191;-57
2024/01/10 12:42:38;;;;;;;17.55;9.07;;;-0.30;99.90;;;;;;7363584;32;20186;-57
2024/01/10 12:46:51;;;;;;;21.33;9.38;;;-0.10;99.90;;;;;;7366633;32;20887;-57
2024/01/10 12:50:53;;;;;;;16.23;8.18;;;-0.20;99.90;;;;;;7363009;32;20135;-58
2024/01/10 12:54:55;;;;;;;21.02;9.57;;;-0.10;99.90;;;;;;7364662;32;20251;-56
2024/01/10 12:58:58;;;;;;;17.05;9.07;;;-0.10;99.90;;;;;;7360576;32;20118;-57
2024/01/10 13:02:59;;;;;;;26.80;13.07;;;-0.30;99.90;;;;;;7353960;32;20225;-56
2024/01/10 13:07:01;;;;;;;26.33;11.85;;;-0.30;99.90;;;;;;7361069;32;20183;-58
2024/01/10 13:11:08;;;;;;;22.60;9.77;;;-0.50;99.90;;;;;;7357354;32;20885;-58
2024/01/10 13:15:09;;;;;;;21.95;10.48;;;-0.30;99.90;;;;;;7357153;32;20251;-57
2024/01/10 13:19:11;;;;;;;20.55;9.52;;;-0.50;99.90;;;;;;7353393;32;20788;-57
2024/01/10 13:23:15;;;;;;;18.08;10.43;;;-0.40;99.90;;;;;;7358709;32;20194;-57
2024/01/10 13:27:17;;;;;;;20.50;10.35;;;-0.50;99.90;;;;;;7356047;32;20112;-57
2024/01/10 13:31:23;;;;;;;21.70;9.68;;;-0.40;99.90;;;;;;7359924;32;20107;-56
2024/01/10 13:35:24;;;;;;;23.55;11.20;;;-0.40;99.90;;;;;;7356479;32;20115;-60
2024/01/10 13:39:26;;;;;;;24.15;11.25;;;-0.30;99.90;;;;;;7356341;32;20170;-58
2024/01/10 13:43:28;;;;;;;19.30;9.43;;;-0.30;99.90;;;;;;7359035;32;20174;-58
2024/01/10 13:47:30;;;;;;;25.33;10.35;;;-0.20;99.90;;;;;;7359274;32;20125;-59
2024/01/10 13:51:32;;;;;;;18.67;9.90;;;-0.20;99.90;;;;;;7359148;32;20119;-59
2024/01/10 13:55:35;;;;;;;23.40;9.52;;;-0.20;99.90;;;;;;7356019;32;20289;-59
2024/01/10 13:59:37;;;;;;;22.27;10.02;;;-0.20;99.90;;;;;;7357769;32;20130;-58
2024/01/10 14:03:39;;;;;;;21.70;10.52;;;-0.10;99.90;;;;;;7356161;32;20168;-58
2024/01/10 14:07:44;;;;;;;24.55;10.32;;;-0.10;99.90;;;;;;7361337;32;20454;-58
2024/01/10 14:11:48;;;;;;;21.25;11.00;;;-0.10;99.90;;;;;;7361570;32;20103;-58
2024/01/10 14:15:50;;;;;;;27.30;12.37;;;-0.20;99.90;;;;;;7351567;32;20245;-58
2024/01/10 14:19:52;;;;;;;54.40;26.62;;;-0.10;99.90;;;;;;7359866;32;20125;-58
2024/01/10 14:23:54;;;;;;;38.22;16.77;;;0.00;99.90;;;;;;7361838;32;20158;-58
2024/01/10 14:27:58;;;;;;;25.62;12.65;;;-0.10;99.90;;;;;;7363857;32;20294;-58
2024/01/10 14:32:00;;;;;;;23.55;12.43;;;-0.10;99.90;;;;;;7361761;32;20206;-57
2024/01/10 14:36:18;;;;;;;22.37;11.38;;;-0.10;99.90;;;;;;7352444;32;20249;-58
2024/01/10 14:40:22;;;;;;;24.90;11.90;;;0.00;99.90;;;;;;7361684;32;20490;-58
2024/01/10 14:44:23;;;;;;;28.15;12.65;;;0.00;99.90;;;;;;7349734;32;20333;-57
2024/01/10 14:48:25;;;;;;;26.40;12.63;;;-0.10;99.90;;;;;;7357538;32;20199;-58
2024/01/10 14:52:29;;;;;;;25.10;12.80;;;-0.30;99.90;;;;;;7363942;32;20602;-57
2024/01/10 14:56:31;;;;;;;29.63;11.73;;;-0.40;99.90;;;;;;7361251;32;20509;-57
2024/01/10 15:00:33;;;;;;;29.63;12.65;;;-0.50;99.90;;;;;;7361172;32;20329;-59
2024/01/10 15:04:38;;;;;;;24.80;12.25;;;-0.60;99.90;;;;;;7357645;32;20265;-58
2024/01/10 15:08:41;;;;;;;24.83;12.23;;;-0.70;99.90;;;;;;7353701;32;20487;-58
2024/01/10 15:12:43;;;;;;;26.62;13.05;;;-0.80;99.90;;;;;;7357265;32;20283;-59
2024/01/10 15:16:46;;;;;;;29.23;13.05;;;-0.90;99.90;;;;;;7360493;32;20179;-59
2024/01/10 15:20:48;;;;;;;26.45;12.02;;;-0.90;99.90;;;;;;7358653;32;20551;-58
2024/01/10 15:24:49;;;;;;;25.90;12.20;;;-1.10;99.90;;;;;;7359267;32;20100;-58
2024/01/10 15:28:54;;;;;;;31.40;14.13;;;-1.10;99.90;;;;;;7368996;32;20513;-58
2024/01/10 15:32:57;;;;;;;27.92;12.60;;;-1.10;99.90;;;;;;7361567;32;20217;-58
2024/01/10 15:36:59;;;;;;;25.15;12.73;;;-1.20;99.90;;;;;;7356816;32;20130;-57
2024/01/10 15:41:02;;;;;;;28.85;11.52;;;-1.30;99.90;;;;;;7355659;32;20220;-57
2024/01/10 15:45:05;;;;;;;30.17;12.32;;;-1.30;99.90;;;;;;7359945;32;20280;-57
2024/01/10 15:49:07;;;;;;;30.37;12.73;;;-1.40;99.90;;;;;;7357217;32;20111;-58
2024/01/10 15:53:09;;;;;;;27.95;12.43;;;-1.50;99.90;;;;;;7355559;32;20119;-58
2024/01/10 15:57:10;;;;;;;24.77;12.57;;;-1.60;99.90;;;;;;7362515;32;20446;-58
2024/01/10 16:01:12;;;;;;;25.05;12.68;;;-1.50;99.90;;;;;;7356613;32;20310;-58
2024/01/10 16:05:16;;;;;;;32.42;13.95;;;-1.50;99.90;;;;;;7361899;32;20189;-57
2024/01/10 16:09:18;;;;;;;26.35;13.10;;;-1.60;99.90;;;;;;7358730;32;20234;-58
2024/01/10 16:13:20;;;;;;;24.50;12.73;;;-1.70;99.90;;;;;;7355538;32;20099;-57
2024/01/10 16:17:21;;;;;;;26.65;13.15;;;-1.70;99.90;;;;;;7358262;32;20554;-57
2024/01/10 16:21:23;;;;;;;25.80;12.52;;;-1.70;99.90;;;;;;7361988;32;20137;-57
2024/01/10 16:25:25;;;;;;;25.45;13.10;;;-1.80;99.90;;;;;;7360680;32;20237;-58
2024/01/10 16:29:27;;;;;;;24.63;12.52;;;-1.80;99.90;;;;;;7356689;32;20466;-57
2024/01/10 16:33:28;;;;;;;29.95;13.13;;;-1.90;99.90;;;;;;7356608;32;20280;-56
2024/01/10 16:37:30;;;;;;;27.45;12.25;;;-1.90;99.90;;;;;;7363028;32;20199;-59
2024/01/10 16:41:32;;;;;;;25.58;12.93;;;-2.00;99.90;;;;;;7357355;32;20248;-57
2024/01/10 16:45:35;;;;;;;24.12;12.80;;;-2.00;99.90;;;;;;7359548;32;20193;-57
2024/01/10 16:49:36;;;;;;;24.92;12.65;;;-2.10;99.90;;;;;;7358112;32;20161;-56
2024/01/10 16:53:38;;;;;;;31.05;14.13;;;-2.20;99.90;;;;;;7359002;32;20255;-56
2024/01/10 16:57:40;;;;;;;26.27;13.43;;;-2.30;99.90;;;;;;7359358;32;20159;-58
2024/01/10 17:01:42;;;;;;;28.83;13.07;;;-2.50;99.90;;;;;;7356130;32;20325;-56
2024/01/10 17:05:44;;;;;;;26.15;13.48;;;-2.50;99.90;;;;;;7360452;32;20198;-57
2024/01/10 17:09:48;;;;;;;31.00;13.73;;;-2.60;99.90;;;;;;7356381;32;20615;-56
2024/01/10 17:13:50;;;;;;;31.27;12.70;;;-2.70;99.90;;;;;;7363842;32;20111;-56
2024/01/10 17:17:52;;;;;;;26.60;12.18;;;-2.70;99.90;;;;;;7359335;32;20459;-57
2024/01/10 17:21:54;;;;;;;28.77;13.50;;;-2.80;99.90;;;;;;7360775;32;20106;-56
2024/01/10 17:25:56;;;;;;;34.55;13.23;;;-2.80;99.90;;;;;;7357460;32;20142;-56
2024/01/10 17:29:58;;;;;;;26.75;12.57;;;-2.80;99.90;;;;;;7367472;32;20107;-57
2024/01/10 17:34:01;;;;;;;27.98;12.13;;;-2.80;99.90;;;;;;7364181;32;20099;-56
2024/01/10 17:38:04;;;;;;;27.95;11.77;;;-2.90;99.90;;;;;;7355860;32;20223;-56
2024/01/10 17:42:06;;;;;;;27.70;13.00;;;-2.90;99.90;;;;;;7362373;32;20138;-57
2024/01/10 17:46:08;;;;;;;27.67;12.37;;;-3.00;99.90;;;;;;7365443;32;20253;-56
2024/01/10 17:50:10;;;;;;;26.12;13.05;;;-3.00;99.90;;;;;;7367585;32;20208;-57
2024/01/10 17:54:12;;;;;;;29.42;13.05;;;-3.00;99.90;;;;;;7358489;32;20292;-57
2024/01/10 17:58:14;;;;;;;27.23;12.80;;;-3.10;99.90;;;;;;7355105;32;20233;-57
2024/01/10 18:02:15;;;;;;;29.17;12.82;;;-3.20;99.90;;;;;;7361233;32;20341;-57
2024/01/10 18:06:17;;;;;;;26.52;12.80;;;-3.20;99.90;;;;;;7365329;32;20156;-63
2024/01/10 18:10:19;;;;;;;33.22;14.52;;;-3.30;99.90;;;;;;7359253;32;20115;-56
2024/01/10 18:14:21;;;;;;;31.42;13.88;;;-3.30;99.90;;;;;;7365049;32;20126;-56
2024/01/10 18:18:23;;;;;;;24.60;12.73;;;-3.40;99.90;;;;;;7356898;32;20245;-56
2024/01/10 18:22:25;;;;;;;33.30;14.77;;;-3.40;99.90;;;;;;7367299;32;20724;-57
2024/01/10 18:26:27;;;;;;;28.95;14.30;;;-3.40;99.90;;;;;;7356298;32;20269;-57
2024/01/10 18:30:29;;;;;;;28.50;14.10;;;-3.40;99.90;;;;;;7364154;32;20528;-57
2024/01/10 18:34:31;;;;;;;26.83;13.13;;;-3.30;99.90;;;;;;7350470;32;20153;-57
2024/01/10 18:38:32;;;;;;;32.00;15.10;;;-3.20;99.90;;;;;;7355448;32;20121;-56
2024/01/10 18:42:35;;;;;;;53.13;28.12;;;-3.20;99.90;;;;;;7363672;32;20135;-57
2024/01/10 18:46:37;;;;;;;64.57;33.90;;;-3.00;99.90;;;;;;7362472;32;20458;-57
2024/01/10 18:50:40;;;;;;;39.85;20.80;;;-3.00;99.90;;;;;;7362954;32;20240;-56
2024/01/10 18:54:42;;;;;;;54.42;31.30;;;-3.00;99.90;;;;;;7364757;32;20141;-57
2024/01/10 18:58:43;;;;;;;50.88;25.75;;;-2.90;99.90;;;;;;7358077;32;20210;-58
2024/01/10 19:02:45;;;;;;;60.22;27.80;;;-2.90;99.90;;;;;;7357985;32;20204;-56
2024/01/10 19:06:47;;;;;;;36.33;20.17;;;-3.00;99.90;;;;;;7357670;32;20220;-57
2024/01/10 19:10:49;;;;;;;28.75;14.35;;;-3.00;99.90;;;;;;7358832;32;20146;-56
2024/01/10 19:14:51;;;;;;;26.75;15.07;;;-3.00;99.90;;;;;;7360192;32;20198;-56
2024/01/10 19:18:52;;;;;;;31.30;16.17;;;-3.00;99.90;;;;;;7358797;32;20231;-56
2024/01/10 19:22:54;;;;;;;32.88;17.37;;;-3.00;99.90;;;;;;7358999;32;20624;-58
2024/01/10 19:26:56;;;;;;;31.52;16.58;;;-3.10;99.90;;;;;;7354457;32;20312;-56
2024/01/10 19:30:59;;;;;;;32.17;16.30;;;-3.10;99.90;;;;;;7363542;32;20190;-55
2024/01/10 19:35:01;;;;;;;31.62;16.95;;;-3.20;99.90;;;;;;7360688;32;20111;-56
2024/01/10 19:39:05;;;;;;;34.35;15.68;;;-3.30;99.90;;;;;;7357569;32;20174;-57
2024/01/10 19:43:07;;;;;;;33.80;15.63;;;-3.50;99.90;;;;;;7363388;32;20136;-57
2024/01/10 19:47:09;;;;;;;31.02;15.52;;;-3.60;99.90;;;;;;7362755;32;20807;-56
2024/01/10 19:51:12;;;;;;;30.73;15.15;;;-3.60;99.90;;;;;;7357867;32;20110;-56
2024/01/10 19:55:14;;;;;;;29.85;13.75;;;-3.60;99.90;;;;;;7360981;32;20164;-56
2024/01/10 19:59:16;;;;;;;29.15;13.98;;;-3.70;99.90;;;;;;7356067;32;20361;-56
2024/01/10 20:03:17;;;;;;;26.90;13.80;;;-3.70;99.90;;;;;;7362442;32;20481;-56
2024/01/10 20:07:20;;;;;;;24.73;12.93;;;-3.80;99.90;;;;;;7361270;32;20654;-55
2024/01/10 20:11:21;;;;;;;31.25;13.73;;;-3.80;99.90;;;;;;7360251;32;20313;-55
2024/01/10 20:15:23;;;;;;;26.60;12.45;;;-3.80;99.90;;;;;;7355369;32;20486;-57
2024/01/10 20:19:25;;;;;;;28.27;12.68;;;-3.90;99.90;;;;;;7357037;32;20178;-56
2024/01/10 20:23:27;;;;;;;30.12;13.25;;;-4.00;99.90;;;;;;7360565;32;20697;-55
2024/01/10 20:27:29;;;;;;;29.20;12.70;;;-4.00;99.90;;;;;;7354619;32;20289;-56
2024/01/10 20:31:32;;;;;;;27.05;12.55;;;-3.90;99.90;;;;;;7359150;32;20521;-57
2024/01/10 20:35:33;;;;;;;29.67;13.15;;;-4.00;99.90;;;;;;7355451;32;20610;-57
2024/01/10 20:39:35;;;;;;;30.33;13.50;;;-4.10;99.90;;;;;;7359398;32;20103;-57